Time;durP1;ratioP1;P1;durP2;ratioP2;P2;SDS_P1;SDS_P2;PMS_P1;PMS_P2;Temp;Humidity;BMP_temperature;BMP_pressure;BME280_temperature;BME280_humidity;BME280_pressure;Samples;Min_cycle;Max_cycle;Signal;HPM_P1;HPM_P2
2023/06/13 00:01:48;;;;;;;16.92;8.30;;;;;;;21.43;37.14;101258.03;5055367;28;20028;-56
2023/06/13 00:04:23;;;;;;;17.55;8.05;;;;;;;21.34;36.92;101256.28;5055370;28;20017;-56
2023/06/13 00:06:56;;;;;;;18.48;7.97;;;;;;;21.33;37.40;101253.81;5055403;28;20025;-56
2023/06/13 00:09:23;;;;;;;17.30;8.25;;;;;;;21.31;36.95;101259.81;5055424;28;20500;-55
2023/06/13 00:11:49;;;;;;;17.52;7.80;;;;;;;21.24;37.33;101258.84;5055403;28;20467;-56
2023/06/13 00:14:16;;;;;;;17.63;8.45;;;;;;;21.19;37.19;101254.31;5055432;28;20051;-56
2023/06/13 00:16:44;;;;;;;17.95;8.10;;;;;;;21.08;37.75;101265.34;5055159;28;20029;-54
2023/06/13 00:19:11;;;;;;;16.23;7.65;;;;;;;21.02;37.75;101256.38;5054978;28;20111;-55
2023/06/13 00:21:38;;;;;;;18.08;8.48;;;;;;;20.89;38.31;101254.88;5055050;28;20045;-55
2023/06/13 00:24:03;;;;;;;18.17;7.93;;;;;;;20.83;38.47;101256.34;5055070;28;20370;-55
2023/06/13 00:26:29;;;;;;;16.13;7.63;;;;;;;20.81;38.52;101251.13;5054985;28;20083;-55
2023/06/13 00:28:54;;;;;;;16.65;7.95;;;;;;;20.70;38.66;101248.00;5055008;28;20029;-55
2023/06/13 00:31:19;;;;;;;16.67;7.80;;;;;;;20.67;38.88;101248.75;5054507;28;20060;-55
2023/06/13 00:33:45;;;;;;;18.08;7.75;;;;;;;20.60;38.85;101248.56;5053034;28;20028;-55
2023/06/13 00:36:15;;;;;;;19.75;8.48;;;;;;;20.53;39.32;101252.03;5052724;28;20108;-55
2023/06/13 00:38:41;;;;;;;16.65;7.82;;;;;;;20.50;39.24;101244.34;5055176;28;20036;-55
2023/06/13 00:41:07;;;;;;;17.35;7.72;;;;;;;20.43;39.98;101244.16;5054672;28;20024;-55
2023/06/13 00:43:32;;;;;;;17.17;7.85;;;;;;;20.42;39.77;101259.41;5054813;28;20441;-55
2023/06/13 00:46:00;;;;;;;19.20;8.13;;;;;;;20.40;39.47;101248.50;5054726;28;20035;-55
2023/06/13 00:48:26;;;;;;;18.33;8.13;;;;;;;20.36;40.08;101256.03;5054751;28;20040;-55
2023/06/13 00:50:52;;;;;;;17.15;7.90;;;;;;;20.35;40.18;101251.59;5054844;28;20025;-55
2023/06/13 00:53:19;;;;;;;17.00;8.13;;;;;;;20.25;40.09;101247.38;5054794;28;20032;-55
2023/06/13 00:55:46;;;;;;;17.92;8.00;;;;;;;20.26;40.00;101246.16;5054744;28;20025;-55
2023/06/13 00:58:12;;;;;;;18.58;8.38;;;;;;;20.17;40.34;101248.34;5054207;28;20477;-55
2023/06/13 01:00:39;;;;;;;17.75;8.25;;;;;;;20.07;40.62;101243.28;5054466;28;20037;-55
2023/06/13 01:03:10;;;;;;;17.02;7.97;;;;;;;20.01;40.93;101237.13;5054482;28;20029;-57
2023/06/13 01:05:36;;;;;;;18.35;8.57;;;;;;;19.98;40.92;101242.66;5054732;28;20055;-55
2023/06/13 01:08:06;;;;;;;18.60;8.60;;;;;;;19.95;41.19;101236.56;5053489;28;20078;-56
2023/06/13 01:10:33;;;;;;;17.25;8.88;;;;;;;19.86;41.27;101235.94;5052608;28;20103;-54
2023/06/13 01:13:28;;;;;;;19.40;8.38;;;;;;;19.87;40.87;101228.31;5054318;28;20047;-54
2023/06/13 01:16:06;;;;;;;18.77;9.00;;;;;;;19.74;41.29;101228.34;5054153;28;20024;-55
2023/06/13 01:18:41;;;;;;;17.83;8.82;;;;;;;19.72;41.48;101227.09;5053497;28;20033;-55
2023/06/13 01:21:08;;;;;;;19.27;8.50;;;;;;;19.67;41.85;101230.97;5054189;28;20025;-55
2023/06/13 01:23:49;;;;;;;19.48;8.60;;;;;;;19.62;41.67;101234.84;5054205;28;20075;-55
2023/06/13 01:26:52;;;;;;;18.45;8.52;;;;;;;19.64;42.00;101232.50;5054303;28;20045;-55
2023/06/13 01:29:18;;;;;;;18.60;8.88;;;;;;;19.53;42.26;101228.59;5052910;28;20036;-50
2023/06/13 01:31:48;;;;;;;18.40;8.68;;;;;;;19.51;42.53;101232.94;5052683;28;20025;-55
2023/06/13 01:34:14;;;;;;;18.75;9.48;;;;;;;19.47;43.07;101230.84;5053773;28;20116;-55
2023/06/13 01:36:40;;;;;;;17.63;9.15;;;;;;;19.43;42.78;101237.53;5054238;28;20089;-55
2023/06/13 01:39:06;;;;;;;17.42;9.00;;;;;;;19.38;42.96;101232.97;5054176;28;20056;-55
2023/06/13 01:41:31;;;;;;;20.73;8.80;;;;;;;19.33;43.11;101241.66;5052250;28;20021;-55
2023/06/13 01:43:56;;;;;;;18.45;9.60;;;;;;;19.28;43.33;101242.72;5053507;28;20029;-55
2023/06/13 01:46:26;;;;;;;19.42;9.73;;;;;;;19.24;43.29;101236.19;5053654;28;20102;-54
2023/06/13 01:49:10;;;;;;;19.25;9.45;;;;;;;19.18;43.23;101237.63;5053648;28;20117;-54
2023/06/13 01:51:44;;;;;;;19.40;9.23;;;;;;;19.13;44.09;101233.09;5053448;28;20096;-55
2023/06/13 01:54:17;;;;;;;19.83;9.10;;;;;;;19.07;43.94;101231.72;5053662;28;20031;-54
2023/06/13 01:56:44;;;;;;;18.52;9.35;;;;;;;19.01;44.45;101228.34;5053603;28;20041;-54
2023/06/13 01:59:13;;;;;;;19.90;9.63;;;;;;;18.97;44.37;101230.22;5053312;28;20130;-55
2023/06/13 02:01:39;;;;;;;19.35;9.55;;;;;;;18.96;44.71;101231.38;5053367;28;20029;-55
2023/06/13 02:04:05;;;;;;;17.95;9.13;;;;;;;18.90;45.09;101217.91;5053361;28;20036;-55
2023/06/13 02:06:32;;;;;;;17.95;9.13;;;;;;;18.84;45.59;101222.97;5053260;28;20092;-55
2023/06/13 02:08:58;;;;;;;18.95;10.00;;;;;;;18.78;46.00;101225.22;5053365;28;20040;-56
2023/06/13 02:11:23;;;;;;;19.70;9.52;;;;;;;18.77;45.65;101217.97;5053226;28;20028;-55
2023/06/13 02:13:49;;;;;;;19.13;9.48;;;;;;;18.73;46.03;101216.22;5052915;28;20025;-56
2023/06/13 02:16:17;;;;;;;20.40;9.82;;;;;;;18.68;45.86;101214.50;5053297;28;20033;-54
2023/06/13 02:18:43;;;;;;;19.02;9.50;;;;;;;18.65;46.09;101220.78;5053184;28;20082;-55
2023/06/13 02:21:08;;;;;;;18.67;9.43;;;;;;;18.61;46.20;101219.88;5052634;28;20078;-55
2023/06/13 02:23:34;;;;;;;18.15;9.65;;;;;;;18.59;46.02;101217.41;5052997;28;20021;-55
2023/06/13 02:25:59;;;;;;;19.08;9.77;;;;;;;18.53;46.01;101225.22;5049673;28;20055;-55
2023/06/13 02:28:25;;;;;;;18.23;9.50;;;;;;;18.50;46.29;101228.75;5052794;28;20063;-55
2023/06/13 02:30:50;;;;;;;18.90;10.23;;;;;;;18.47;46.33;101226.66;5053187;28;20036;-55
2023/06/13 02:33:15;;;;;;;18.98;9.35;;;;;;;18.42;46.71;101221.25;5052786;28;20473;-56
2023/06/13 02:35:42;;;;;;;20.42;9.95;;;;;;;18.36;46.85;101229.13;5052751;28;20502;-56
2023/06/13 02:38:07;;;;;;;19.63;9.68;;;;;;;18.31;47.07;101226.53;5052609;28;20021;-54
2023/06/13 02:40:35;;;;;;;19.63;9.80;;;;;;;18.30;47.18;101226.88;5051328;28;20029;-54
2023/06/13 02:43:01;;;;;;;19.65;9.65;;;;;;;18.30;47.03;101233.28;5052542;28;20029;-55
2023/06/13 02:45:26;;;;;;;22.33;10.25;;;;;;;18.30;47.06;101233.28;5052659;28;20025;-55
2023/06/13 02:47:52;;;;;;;20.23;9.25;;;;;;;18.27;47.03;101238.78;5052518;28;20040;-55
2023/06/13 02:50:17;;;;;;;18.98;9.23;;;;;;;18.27;47.28;101239.63;5052658;28;20477;-54
2023/06/13 02:52:43;;;;;;;19.15;9.57;;;;;;;18.20;47.64;101237.38;5052432;28;20389;-54
2023/06/13 02:55:10;;;;;;;18.85;9.65;;;;;;;18.19;47.37;101227.34;5052469;28;20021;-55
2023/06/13 02:57:37;;;;;;;21.02;9.75;;;;;;;18.11;48.03;101233.03;5052341;28;20131;-55
2023/06/13 03:00:08;;;;;;;20.27;9.60;;;;;;;18.07;48.00;101225.38;5052447;28;20564;-54
2023/06/13 03:02:36;;;;;;;18.90;9.63;;;;;;;18.07;47.74;101230.97;5052163;28;20037;-55
2023/06/13 03:05:03;;;;;;;19.08;9.77;;;;;;;18.04;48.27;101225.25;5052297;28;20031;-54
2023/06/13 03:07:31;;;;;;;18.75;9.52;;;;;;;18.02;48.56;101227.56;5052009;28;20032;-55
2023/06/13 03:09:57;;;;;;;19.60;10.00;;;;;;;17.97;48.36;101233.38;5051748;28;20465;-55
2023/06/13 03:12:22;;;;;;;19.98;9.98;;;;;;;17.93;48.38;101233.22;5051698;28;20032;-56
2023/06/13 03:14:48;;;;;;;20.30;10.25;;;;;;;17.85;48.81;101232.19;5051464;28;20036;-55
2023/06/13 03:17:16;;;;;;;19.30;9.85;;;;;;;17.87;48.71;101229.84;5051834;28;20119;-55
2023/06/13 03:19:42;;;;;;;19.65;9.63;;;;;;;17.83;48.91;101240.09;5051165;28;20396;-54
2023/06/13 03:22:07;;;;;;;20.15;9.95;;;;;;;17.80;49.00;101237.19;5051592;28;20053;-54
2023/06/13 03:24:35;;;;;;;20.65;9.82;;;;;;;17.81;48.90;101236.81;5051511;28;20029;-55
2023/06/13 03:27:01;;;;;;;20.33;9.82;;;;;;;17.76;49.06;101232.28;5051797;28;20053;-54
2023/06/13 03:29:27;;;;;;;18.65;9.68;;;;;;;17.80;49.05;101234.38;5048065;28;20060;-55
2023/06/13 03:31:52;;;;;;;21.00;10.32;;;;;;;17.80;48.82;101232.38;5051469;28;20407;-54
2023/06/13 03:34:17;;;;;;;18.95;9.98;;;;;;;17.76;48.92;101234.22;5051697;28;20384;-54
2023/06/13 03:36:43;;;;;;;19.58;10.27;;;;;;;17.80;48.65;101220.41;5051833;28;20473;-55
2023/06/13 03:39:08;;;;;;;22.02;11.00;;;;;;;17.79;49.08;101216.75;5051723;28;20083;-55
2023/06/13 03:41:34;;;;;;;20.98;10.20;;;;;;;17.80;48.95;101215.59;5051751;28;20045;-54
2023/06/13 03:43:59;;;;;;;20.17;9.93;;;;;;;17.82;48.55;101220.84;5051870;28;20128;-55
2023/06/13 03:46:24;;;;;;;19.60;10.52;;;;;;;17.97;48.40;101219.38;5051628;28;20021;-55
2023/06/13 03:48:51;;;;;;;19.95;10.70;;;;;;;18.36;47.71;101211.47;5051668;28;20079;-55
2023/06/13 03:51:16;;;;;;;21.70;10.43;;;;;;;18.86;46.15;101213.03;5051805;28;20481;-56
2023/06/13 03:53:41;;;;;;;19.20;10.45;;;;;;;19.13;45.45;101221.88;5051579;28;20112;-55
2023/06/13 03:56:07;;;;;;;22.85;9.98;;;;;;;19.08;45.71;101219.31;5051314;28;20041;-56
2023/06/13 03:58:32;;;;;;;18.98;10.10;;;;;;;18.99;45.82;101225.06;5051798;28;20480;-55
2023/06/13 04:00:58;;;;;;;19.52;10.80;;;;;;;18.76;46.08;101221.09;5051462;28;20028;-55
2023/06/13 04:03:23;;;;;;;20.40;10.30;;;;;;;18.54;47.00;101221.25;5051505;28;20025;-55
2023/06/13 04:05:49;;;;;;;20.10;10.68;;;;;;;18.37;47.12;101224.31;5051509;28;20032;-56
2023/06/13 04:08:14;;;;;;;22.08;10.45;;;;;;;18.27;47.33;101230.38;5051404;28;20090;-56
2023/06/13 04:10:39;;;;;;;19.50;10.13;;;;;;;18.18;47.99;101236.09;5051691;28;20108;-55
2023/06/13 04:13:05;;;;;;;20.23;10.55;;;;;;;18.15;48.23;101237.59;5051456;28;20094;-56
2023/06/13 04:15:30;;;;;;;18.95;10.18;;;;;;;18.11;48.08;101233.88;5051650;28;20032;-60
2023/06/13 04:17:55;;;;;;;21.23;10.60;;;;;;;18.04;48.47;101234.44;5051144;28;20476;-55
2023/06/13 04:20:24;;;;;;;21.77;10.90;;;;;;;17.96;49.11;101232.56;5051298;28;20037;-56
2023/06/13 04:22:49;;;;;;;19.65;10.27;;;;;;;17.89;49.17;101233.09;5051585;28;20041;-55
2023/06/13 04:25:15;;;;;;;19.85;10.05;;;;;;;17.91;49.27;101233.59;5048149;28;20028;-54
2023/06/13 04:27:43;;;;;;;20.13;10.07;;;;;;;17.90;49.22;101236.75;5050778;28;20044;-56
2023/06/13 04:30:09;;;;;;;19.85;10.13;;;;;;;17.94;49.03;101237.66;5051011;28;20033;-54
2023/06/13 04:32:35;;;;;;;20.52;10.65;;;;;;;17.95;49.08;101242.09;5051172;28;20065;-54
2023/06/13 04:35:00;;;;;;;20.10;10.32;;;;;;;18.00;49.79;101236.28;5049704;28;20130;-55
2023/06/13 04:37:26;;;;;;;19.60;10.00;;;;;;;18.07;49.17;101242.16;5051173;28;20021;-55
2023/06/13 04:39:55;;;;;;;20.02;10.30;;;;;;;18.11;48.99;101242.28;5051339;28;20029;-56
2023/06/13 04:42:24;;;;;;;20.23;10.13;;;;;;;18.22;48.92;101246.25;5052600;28;20071;-56
2023/06/13 04:44:56;;;;;;;20.80;10.85;;;;;;;18.26;48.92;101240.78;5054802;28;20141;-56
2023/06/13 04:47:23;;;;;;;21.02;10.27;;;;;;;18.30;48.46;101244.50;5054839;28;20028;-55
2023/06/13 04:49:51;;;;;;;21.30;10.15;;;;;;;18.35;48.32;101246.25;5054721;28;20449;-56
2023/06/13 04:52:18;;;;;;;21.25;10.75;;;;;;;18.40;48.46;101244.03;5051925;28;20041;-56
2023/06/13 04:54:44;;;;;;;19.02;9.65;;;;;;;18.48;48.02;101244.25;5047964;28;20029;-56
2023/06/13 04:57:10;;;;;;;18.35;9.30;;;;;;;18.64;48.14;101248.00;5054660;28;20037;-56
2023/06/13 04:59:35;;;;;;;22.42;10.77;;;;;;;18.69;47.94;101256.16;5054771;28;20505;-56
2023/06/13 05:02:00;;;;;;;20.90;10.27;;;;;;;18.78;48.05;101258.84;5054578;28;20108;-56
2023/06/13 05:04:26;;;;;;;22.63;10.63;;;;;;;18.73;48.12;101256.25;5054513;28;20401;-56
2023/06/13 05:06:51;;;;;;;21.00;10.52;;;;;;;18.75;47.95;101259.53;5054581;28;20029;-57
2023/06/13 05:09:17;;;;;;;20.48;11.07;;;;;;;18.81;48.01;101252.50;5054712;28;20024;-56
2023/06/13 05:11:43;;;;;;;21.17;11.50;;;;;;;18.74;47.49;101262.69;5054509;28;20025;-56
2023/06/13 05:14:08;;;;;;;20.52;11.45;;;;;;;18.73;48.28;101270.28;5054273;28;20473;-56
2023/06/13 05:16:34;;;;;;;21.80;11.27;;;;;;;18.77;48.57;101265.63;5054126;28;20115;-55
2023/06/13 05:19:00;;;;;;;20.60;11.40;;;;;;;18.84;48.34;101262.22;5054358;28;20135;-56
2023/06/13 05:21:27;;;;;;;20.17;10.43;;;;;;;18.94;47.95;101266.53;5053967;28;20056;-56
2023/06/13 05:23:53;;;;;;;20.52;10.80;;;;;;;19.01;47.99;101270.41;5054134;28;20511;-55
2023/06/13 05:26:20;;;;;;;20.55;11.32;;;;;;;19.07;48.21;101262.56;5050785;28;20117;-55
2023/06/13 05:28:46;;;;;;;21.13;11.07;;;;;;;19.23;47.79;101259.00;5054317;28;20029;-54
2023/06/13 05:31:12;;;;;;;20.77;11.35;;;;;;;19.22;47.35;101262.97;5054268;28;20032;-55
2023/06/13 05:33:38;;;;;;;22.88;10.45;;;;;;;19.32;47.22;101266.06;5053842;28;20032;-55
2023/06/13 05:36:03;;;;;;;21.33;11.30;;;;;;;19.36;47.17;101263.41;5053985;28;20025;-55
2023/06/13 05:38:29;;;;;;;23.42;11.73;;;;;;;19.44;47.20;101267.22;5053910;28;20396;-55
2023/06/13 05:40:54;;;;;;;21.13;11.38;;;;;;;19.48;46.98;101270.94;5053963;28;20029;-55
2023/06/13 05:43:20;;;;;;;20.98;11.15;;;;;;;19.57;46.61;101259.56;5053894;28;20032;-56
2023/06/13 05:45:48;;;;;;;21.58;11.45;;;;;;;19.64;46.75;101259.78;5053801;28;20154;-56
2023/06/13 05:48:14;;;;;;;22.08;11.40;;;;;;;19.59;46.60;101257.22;5053338;28;20087;-55
2023/06/13 05:50:39;;;;;;;23.35;11.23;;;;;;;19.65;46.74;101264.19;5053643;28;20033;-55
2023/06/13 05:53:05;;;;;;;21.00;11.60;;;;;;;19.73;46.43;101260.44;5053560;28;20095;-55
2023/06/13 05:55:30;;;;;;;22.35;11.45;;;;;;;19.80;46.41;101263.41;5053519;28;20033;-55
2023/06/13 05:57:55;;;;;;;22.85;11.48;;;;;;;19.80;46.20;101266.22;5053457;28;20025;-56
2023/06/13 06:00:22;;;;;;;22.50;11.52;;;;;;;19.82;45.82;101268.66;5053362;28;20108;-56
2023/06/13 06:02:48;;;;;;;19.90;11.20;;;;;;;19.89;46.41;101268.88;5053281;28;20029;-55
2023/06/13 06:05:14;;;;;;;21.25;11.32;;;;;;;19.97;46.13;101269.09;5053314;28;20064;-55
2023/06/13 06:07:41;;;;;;;23.05;11.63;;;;;;;20.04;46.73;101272.88;5053048;28;20033;-56
2023/06/13 06:10:07;;;;;;;26.67;12.07;;;;;;;20.10;45.64;101274.28;5051820;28;20630;-56
2023/06/13 06:12:33;;;;;;;22.38;11.88;;;;;;;20.27;45.70;101266.66;5053232;28;20057;-59
2023/06/13 06:14:58;;;;;;;22.10;12.40;;;;;;;20.31;45.18;101275.97;5053133;28;20021;-56
2023/06/13 06:17:24;;;;;;;20.45;11.15;;;;;;;20.39;45.13;101283.44;5052989;28;20032;-57
2023/06/13 06:19:49;;;;;;;21.50;11.50;;;;;;;20.44;44.88;101268.28;5053362;28;20056;-56
2023/06/13 06:22:15;;;;;;;23.60;11.40;;;;;;;20.53;44.58;101270.88;5052102;28;20384;-56
2023/06/13 06:24:42;;;;;;;21.10;11.15;;;;;;;20.61;44.68;101277.50;5032124;28;20036;-55
2023/06/13 06:27:07;;;;;;;24.33;11.73;;;;;;;20.61;45.17;101258.63;5030813;28;20032;-56
2023/06/13 06:29:33;;;;;;;22.00;11.32;;;;;;;20.75;45.07;101271.44;5030854;28;20025;-58
2023/06/13 06:31:58;;;;;;;23.27;11.35;;;;;;;20.82;44.46;101263.16;5030650;28;20021;-56
2023/06/13 06:34:24;;;;;;;20.52;11.32;;;;;;;20.85;44.13;101262.44;5030767;28;20473;-56
2023/06/13 06:36:49;;;;;;;20.58;11.63;;;;;;;20.96;44.16;101266.31;5031562;28;20460;-56
2023/06/13 06:39:15;;;;;;;23.67;11.57;;;;;;;20.97;43.62;101272.75;5031537;28;20029;-56
2023/06/13 06:41:41;;;;;;;20.83;11.40;;;;;;;20.96;44.33;101271.94;5030111;28;20112;-56
2023/06/13 06:44:07;;;;;;;23.23;11.20;;;;;;;20.97;43.67;101269.94;5031323;28;20030;-56
2023/06/13 06:46:32;;;;;;;20.92;11.45;;;;;;;21.01;43.92;101270.84;5031388;28;20037;-56
2023/06/13 06:48:57;;;;;;;20.15;11.15;;;;;;;20.98;43.66;101277.19;5031280;28;20038;-58
2023/06/13 06:51:23;;;;;;;20.35;11.32;;;;;;;21.02;43.38;101278.88;5031259;28;20022;-55
2023/06/13 06:53:50;;;;;;;21.20;11.18;;;;;;;21.14;43.78;101277.13;5031146;28;20493;-56
2023/06/13 06:56:15;;;;;;;21.27;11.13;;;;;;;21.27;43.10;101278.59;5031212;28;20037;-56
2023/06/13 06:58:40;;;;;;;20.52;10.98;;;;;;;21.24;43.09;101282.19;5036771;28;20032;-56
2023/06/13 07:01:06;;;;;;;20.45;11.32;;;;;;;21.09;43.40;101267.00;5049813;28;20497;-55
2023/06/13 07:03:32;;;;;;;19.90;11.23;;;;;;;21.18;44.12;101269.56;5049642;28;20025;-55
2023/06/13 07:05:57;;;;;;;20.58;11.38;;;;;;;21.23;43.63;101268.47;5050395;28;20576;-56
2023/06/13 07:08:22;;;;;;;19.67;11.55;;;;;;;21.30;43.29;101272.25;5051090;28;20040;-56
2023/06/13 07:10:48;;;;;;;20.67;10.68;;;;;;;21.44;42.99;101271.72;5051245;28;20033;-56
2023/06/13 07:13:13;;;;;;;19.75;10.90;;;;;;;21.59;43.05;101269.22;5050986;28;20033;-56
2023/06/13 07:15:38;;;;;;;19.88;11.23;;;;;;;21.68;42.83;101274.63;5050913;28;20025;-55
2023/06/13 07:18:05;;;;;;;18.90;10.85;;;;;;;21.65;42.33;101279.81;5050691;28;20029;-56
2023/06/13 07:20:30;;;;;;;23.90;12.30;;;;;;;21.69;42.85;101279.06;5050594;28;20108;-55
2023/06/13 07:22:55;;;;;;;21.70;12.43;;;;;;;21.63;42.53;101282.19;5050609;28;20119;-55
2023/06/13 07:25:22;;;;;;;20.90;11.95;;;;;;;21.67;42.83;101282.28;5050616;28;20461;-55
2023/06/13 07:27:47;;;;;;;22.85;11.40;;;;;;;21.79;43.00;101282.09;5050960;28;20104;-56
2023/06/13 07:30:12;;;;;;;21.85;11.57;;;;;;;21.99;42.51;101290.50;5050663;28;20419;-55
2023/06/13 07:32:37;;;;;;;21.80;11.95;;;;;;;22.07;42.72;101286.63;5050799;28;20031;-56
2023/06/13 07:35:03;;;;;;;21.00;11.18;;;;;;;22.18;41.94;101286.84;5050689;28;20029;-55
2023/06/13 07:37:28;;;;;;;21.13;11.68;;;;;;;22.30;41.81;101283.00;5050658;28;20077;-55
2023/06/13 07:39:53;;;;;;;20.75;10.85;;;;;;;22.33;41.50;101275.78;5050670;28;20032;-55
2023/06/13 07:42:19;;;;;;;20.08;11.25;;;;;;;22.44;40.96;101277.63;5049275;28;20028;-56
2023/06/13 07:44:44;;;;;;;22.75;12.15;;;;;;;22.43;41.14;101281.63;5050439;28;20060;-56
2023/06/13 07:47:10;;;;;;;21.05;11.05;;;;;;;22.42;41.18;101282.00;5050335;28;20436;-54
2023/06/13 07:49:35;;;;;;;20.90;11.18;;;;;;;22.49;41.30;101276.47;5050704;28;20033;-56
2023/06/13 07:52:01;;;;;;;21.10;11.50;;;;;;;22.44;41.20;101288.09;5049101;28;20033;-55
2023/06/13 07:54:26;;;;;;;21.23;12.02;;;;;;;22.41;42.13;101284.03;5050627;28;20059;-55
2023/06/13 07:56:52;;;;;;;21.70;11.90;;;;;;;22.49;42.16;101272.88;5050682;28;20083;-56
2023/06/13 07:59:17;;;;;;;20.15;11.10;;;;;;;22.66;41.72;101271.53;5050458;28;20025;-56
2023/06/13 08:01:43;;;;;;;20.30;10.98;;;;;;;22.78;41.04;101268.47;5050253;28;20044;-55
2023/06/13 08:04:08;;;;;;;20.88;12.50;;;;;;;22.92;40.83;101264.25;5050247;28;20392;-56
2023/06/13 08:06:33;;;;;;;20.42;11.38;;;;;;;23.08;40.57;101270.50;5048751;28;20112;-55
2023/06/13 08:08:59;;;;;;;19.83;11.35;;;;;;;23.08;39.87;101275.34;5050138;28;20048;-55
2023/06/13 08:11:24;;;;;;;21.25;11.15;;;;;;;23.15;39.53;101273.41;5049914;28;20109;-55
2023/06/13 08:13:49;;;;;;;20.73;11.13;;;;;;;23.23;39.70;101268.72;5049801;28;20057;-56
2023/06/13 08:16:15;;;;;;;22.90;10.90;;;;;;;23.40;39.78;101274.97;5051078;28;20025;-56
2023/06/13 08:18:40;;;;;;;19.58;10.90;;;;;;;23.51;38.86;101268.25;5053784;28;20032;-55
2023/06/13 08:21:05;;;;;;;19.98;10.82;;;;;;;23.60;38.46;101272.78;5053504;28;20033;-55
2023/06/13 08:23:31;;;;;;;19.35;11.20;;;;;;;23.71;38.43;101273.69;5053846;28;20033;-55
2023/06/13 08:25:56;;;;;;;20.27;11.63;;;;;;;23.73;37.97;101273.34;5053773;28;20037;-56
2023/06/13 08:28:21;;;;;;;21.60;11.00;;;;;;;23.80;37.92;101270.59;5053854;28;20081;-56
2023/06/13 08:30:49;;;;;;;19.70;11.00;;;;;;;23.76;37.58;101270.53;5053685;28;20036;-55
2023/06/13 08:33:14;;;;;;;21.75;10.82;;;;;;;23.71;37.44;101276.53;5053660;28;20029;-54
2023/06/13 08:35:39;;;;;;;24.30;10.93;;;;;;;23.67;38.22;101265.19;5053460;28;20048;-55
2023/06/13 08:38:05;;;;;;;20.73;10.85;;;;;;;23.71;38.05;101256.75;5053637;28;20024;-56
2023/06/13 08:40:30;;;;;;;21.25;11.27;;;;;;;23.71;37.66;101262.41;5053364;28;20021;-55
2023/06/13 08:42:57;;;;;;;20.75;10.77;;;;;;;23.74;37.47;101260.84;5052231;28;20110;-55
2023/06/13 08:45:22;;;;;;;19.90;10.35;;;;;;;24.02;36.95;101265.19;5053309;28;20040;-55
2023/06/13 08:47:48;;;;;;;19.42;10.55;;;;;;;24.09;36.14;101260.38;5053607;28;20036;-55
2023/06/13 08:50:18;;;;;;;19.02;10.35;;;;;;;24.27;36.70;101257.72;5053960;28;20044;-56
2023/06/13 08:52:46;;;;;;;19.58;10.38;;;;;;;24.43;35.90;101250.97;5053770;28;20488;-55
2023/06/13 08:55:13;;;;;;;20.45;10.25;;;;;;;24.57;35.50;101256.75;5053593;28;20025;-55
2023/06/13 08:57:40;;;;;;;18.63;10.02;;;;;;;24.58;34.80;101249.88;5053603;28;20025;-55
2023/06/13 09:00:12;;;;;;;21.45;10.20;;;;;;;24.61;34.80;101245.47;5053601;28;20032;-54
2023/06/13 09:02:42;;;;;;;21.33;9.77;;;;;;;24.73;35.94;101245.16;5053575;28;20458;-55
2023/06/13 09:05:13;;;;;;;19.85;10.45;;;;;;;24.84;35.65;101244.44;5053757;28;20057;-55
2023/06/13 09:07:40;;;;;;;21.92;10.55;;;;;;;24.82;34.48;101258.16;5053496;28;20025;-56
2023/06/13 09:10:07;;;;;;;21.13;10.50;;;;;;;24.87;34.43;101244.44;5053500;28;20130;-55
2023/06/13 09:12:33;;;;;;;19.88;10.35;;;;;;;24.98;34.34;101249.34;5053434;28;20036;-56
2023/06/13 09:14:59;;;;;;;20.50;10.07;;;;;;;24.99;34.55;101253.78;5053318;28;20123;-56
2023/06/13 09:17:25;;;;;;;22.58;10.25;;;;;;;25.11;34.61;101250.63;5053249;28;20108;-55
2023/06/13 09:19:50;;;;;;;18.40;10.02;;;;;;;25.16;34.44;101236.09;5052934;28;20471;-55
2023/06/13 09:22:17;;;;;;;21.13;11.40;;;;;;;25.32;34.05;101238.56;5052979;28;20045;-56
2023/06/13 09:24:43;;;;;;;20.40;10.10;;;;;;;25.41;33.48;101246.72;5052812;28;20111;-55
2023/06/13 09:27:08;;;;;;;19.02;10.30;;;;;;;25.35;33.63;101243.44;5052943;28;20071;-56
2023/06/13 09:29:35;;;;;;;21.02;10.70;;;;;;;25.33;33.66;101243.00;5052344;28;20025;-55
2023/06/13 09:32:00;;;;;;;20.55;10.15;;;;;;;25.34;33.21;101246.69;5053044;28;20037;-56
2023/06/13 09:34:29;;;;;;;20.30;9.63;;;;;;;25.47;33.62;101245.13;5052937;28;20029;-56
2023/06/13 09:36:57;;;;;;;19.75;9.57;;;;;;;25.70;33.37;101241.13;5053603;28;20477;-56
2023/06/13 09:39:23;;;;;;;23.55;10.15;;;;;;;25.90;32.70;101252.91;5053888;28;20032;-56
2023/06/13 09:41:56;;;;;;;18.52;9.32;;;;;;;25.96;32.23;101241.97;5052004;28;20083;-56
2023/06/13 09:44:24;;;;;;;18.38;9.18;;;;;;;25.99;31.29;101241.97;5053116;28;20056;-56
2023/06/13 09:46:53;;;;;;;18.90;9.25;;;;;;;26.03;31.22;101244.00;5052866;28;20029;-55
2023/06/13 09:49:19;;;;;;;17.92;9.57;;;;;;;26.08;30.42;101232.25;5052697;28;20511;-56
2023/06/13 09:51:45;;;;;;;19.55;10.02;;;;;;;26.21;32.09;101241.22;5052534;28;20322;-56
2023/06/13 09:54:11;;;;;;;18.38;9.20;;;;;;;26.29;31.79;101232.28;5052409;28;20056;-55
2023/06/13 09:56:40;;;;;;;18.08;9.13;;;;;;;26.44;32.76;101237.97;5052449;28;20040;-56
2023/06/13 09:59:05;;;;;;;19.48;9.60;;;;;;;26.57;30.15;101236.31;5052242;28;20084;-56
2023/06/13 10:01:34;;;;;;;19.70;9.77;;;;;;;26.60;29.14;101229.81;5052214;28;20441;-56
2023/06/13 10:04:01;;;;;;;19.02;9.35;;;;;;;26.68;29.49;101235.47;5052150;28;20037;-56
2023/06/13 10:06:26;;;;;;;17.75;9.20;;;;;;;26.71;29.80;101231.84;5052109;28;20025;-56
2023/06/13 10:08:52;;;;;;;18.45;9.88;;;;;;;26.67;29.53;101231.00;5052095;28;20748;-56
2023/06/13 10:11:23;;;;;;;21.38;9.60;;;;;;;26.69;30.65;101231.41;5052243;28;20061;-56
2023/06/13 10:14:02;;;;;;;19.25;9.43;;;;;;;26.86;29.98;101227.75;5052115;28;20091;-56
2023/06/13 10:16:30;;;;;;;22.48;9.60;;;;;;;27.07;30.09;101223.22;5052064;28;20025;-56
2023/06/13 10:18:57;;;;;;;20.23;9.90;;;;;;;27.15;28.46;101226.84;5051900;28;20043;-56
2023/06/13 10:21:23;;;;;;;19.33;9.35;;;;;;;27.25;28.34;101232.47;5051740;28;20045;-55
2023/06/13 10:23:49;;;;;;;18.75;9.30;;;;;;;27.25;28.00;101229.63;5051989;28;20346;-56
2023/06/13 10:26:27;;;;;;;17.73;9.45;;;;;;;27.33;27.78;101226.75;5052190;28;20036;-56
2023/06/13 10:29:01;;;;;;;18.63;9.40;;;;;;;27.39;28.47;101222.28;5052049;28;20029;-55
2023/06/13 10:31:40;;;;;;;18.77;9.63;;;;;;;27.33;28.84;101221.91;5052052;28;20503;-56
2023/06/13 10:34:43;;;;;;;19.00;8.95;;;;;;;27.49;28.75;101223.44;5052037;28;20056;-56
2023/06/13 10:37:34;;;;;;;26.65;9.70;;;;;;;27.43;27.12;101217.41;5051864;28;20029;-56
2023/06/13 10:40:28;;;;;;;20.30;9.70;;;;;;;27.30;27.85;101219.88;5050895;28;20473;-57
2023/06/13 10:43:16;;;;;;;20.50;9.35;;;;;;;27.43;28.26;101220.22;5050305;28;20061;-57
2023/06/13 10:45:45;;;;;;;18.33;9.35;;;;;;;27.46;27.81;101225.09;5051575;28;20033;-57
2023/06/13 10:48:10;;;;;;;22.17;9.88;;;;;;;27.44;26.19;101221.84;5051738;28;20108;-55
2023/06/13 10:50:38;;;;;;;18.63;9.15;;;;;;;27.49;26.01;101221.41;5051491;28;20445;-55
2023/06/13 10:53:03;;;;;;;19.20;9.65;;;;;;;27.62;26.16;101221.75;5051434;28;20341;-57
2023/06/13 10:55:31;;;;;;;18.67;9.43;;;;;;;27.59;27.23;101219.75;5051292;28;20079;-56
2023/06/13 10:57:57;;;;;;;17.80;8.90;;;;;;;27.66;25.93;101224.56;5051782;28;20037;-55
2023/06/13 11:00:32;;;;;;;16.88;8.95;;;;;;;27.76;26.27;101225.72;5051327;28;20094;-56
2023/06/13 11:03:09;;;;;;;18.10;9.40;;;;;;;27.83;26.66;101214.28;5051082;28;20493;-57
2023/06/13 11:05:49;;;;;;;16.85;9.18;;;;;;;27.92;26.59;101213.81;5050960;28;20051;-56
2023/06/13 11:08:16;;;;;;;17.80;8.98;;;;;;;27.93;26.59;101198.38;5041824;28;20025;-56
2023/06/13 11:10:46;;;;;;;17.52;9.35;;;;;;;28.12;26.93;101202.72;5040339;28;20454;-56
2023/06/13 11:13:26;;;;;;;19.33;9.27;;;;;;;28.22;27.34;101203.84;5034642;28;20167;-56